createdAt,value
2018-10-18T00:01:54.640Z,55.27
2018-10-18T00:04:47.970Z,54.43
2018-10-18T00:10:02.605Z,55.27
2018-10-18T00:12:40.440Z,56.70
2018-10-18T00:17:52.381Z,56.00
2018-10-18T00:20:28.201Z,58.17
2018-10-18T00:23:00.910Z,60.43
2018-10-18T00:28:18.451Z,60.40
2018-10-18T00:30:53.625Z,62.27
2018-10-18T00:38:48.988Z,61.67
2018-10-18T00:41:23.203Z,62.50
2018-10-18T00:43:55.984Z,63.93
2018-10-18T00:46:30.561Z,64.13
2018-10-18T00:49:03.084Z,64.37
2018-10-18T00:51:35.312Z,65.10
2018-10-18T00:54:19.960Z,66.10
2018-10-18T00:56:55.323Z,65.70
2018-10-18T00:59:37.883Z,65.33
2018-10-18T01:02:09.276Z,66.43
2018-10-18T01:05:22.393Z,66.60
2018-10-18T01:07:56.840Z,67.23
2018-10-18T01:10:27.810Z,67.90
2018-10-18T01:15:53.588Z,65.93
2018-10-18T01:21:18.010Z,67.77
2018-10-18T01:23:56.521Z,69.93
2018-10-18T01:26:28.156Z,70.00
2018-10-18T01:28:58.391Z,70.10
2018-10-18T01:34:15.426Z,73.57
2018-10-18T01:36:50.800Z,72.03
2018-10-18T01:39:21.556Z,73.43
2018-10-18T01:41:52.497Z,72.63
2018-10-18T01:44:26.400Z,72.27
2018-10-18T01:46:59.797Z,73.67
2018-10-18T01:49:31.680Z,72.20
2018-10-18T01:52:03.010Z,73.23
2018-10-18T01:54:50.182Z,71.83
2018-10-18T02:00:01.551Z,72.00
2018-10-18T02:02:40.293Z,72.97
2018-10-18T02:05:11.213Z,75.53
2018-10-18T02:07:43.050Z,73.93
2018-10-18T02:10:14.942Z,76.50
2018-10-18T02:12:47.290Z,77.60
2018-10-18T02:15:17.951Z,77.53
2018-10-18T02:17:49.416Z,76.37
2018-10-18T02:23:04.887Z,80.73
2018-10-18T02:25:40.753Z,80.30
2018-10-18T02:28:13.244Z,76.67
2018-10-18T02:30:53.997Z,80.17
2018-10-18T02:33:24.787Z,77.87
2018-10-18T02:35:59.443Z,77.20
2018-10-18T02:38:30.909Z,74.87
2018-10-18T02:43:47.509Z,75.77
2018-10-18T02:46:25.605Z,77.60
2018-10-18T02:48:57.413Z,77.43
2018-10-18T02:51:28.354Z,77.40
2018-10-18T02:56:57.500Z,80.03
2018-10-18T02:59:33.983Z,81.23
2018-10-18T03:04:53.761Z,81.77
2018-10-18T03:07:23.430Z,89.53
2018-10-18T03:09:55.077Z,94.27
2018-10-18T03:12:25.725Z,100.27
2018-10-18T03:15:00.956Z,108.17
2018-10-18T03:17:43.228Z,102.70
2018-10-18T03:20:15.071Z,101.77
2018-10-18T03:22:59.994Z,123.40
2018-10-18T03:25:38.244Z,114.27
2018-10-18T03:33:27.403Z,139.23
2018-10-18T03:36:01.335Z,140.80
2018-10-18T03:38:33.541Z,141.27
2018-10-18T03:43:46.358Z,158.13
2018-10-18T03:46:21.284Z,157.27
2018-10-18T03:51:30.548Z,151.27
2018-10-18T03:54:32.369Z,169.70
2018-10-18T03:57:02.539Z,197.17
2018-10-18T03:59:35.040Z,210.57
2018-10-18T04:02:05.433Z,196.13
2018-10-18T04:04:42.020Z,172.90
2018-10-18T04:07:17.472Z,181.80
2018-10-18T04:09:48.337Z,186.97
2018-10-18T04:12:21.719Z,178.87
2018-10-18T04:14:59.049Z,171.13
2018-10-18T04:17:29.583Z,172.53
2018-10-18T04:20:01.275Z,165.23
2018-10-18T04:22:35.229Z,184.23
2018-10-18T04:25:09.810Z,180.73
2018-10-18T04:30:17.877Z,193.77
2018-10-18T04:33:13.083Z,185.23
2018-10-18T04:35:46.330Z,166.13
2018-10-18T04:38:16.665Z,196.57
2018-10-18T04:40:49.598Z,168.50
2018-10-18T04:43:23.929Z,225.57
2018-10-18T04:45:55.332Z,227.03
2018-10-18T04:48:31.514Z,280.70
2018-10-18T04:51:12.752Z,250.27
2018-10-18T04:56:40.283Z,263.57
2018-10-18T04:59:13.618Z,310.87
2018-10-18T05:01:48.618Z,314.40
2018-10-18T05:04:25.134Z,268.50
2018-10-18T05:07:08.069Z,323.33
2018-10-18T05:09:51.774Z,425.27
2018-10-18T05:12:36.307Z,441.20
2018-10-18T05:18:02.923Z,365.90
2018-10-18T05:29:05.855Z,331.53
2018-10-18T05:46:29.501Z,370.03
2018-10-18T05:49:01.277Z,496.60
2018-10-18T05:51:41.478Z,575.13
2018-10-18T06:12:26.733Z,329.83
2018-10-18T06:15:03.973Z,244.57
2018-10-18T06:20:39.693Z,179.80
2018-10-18T07:09:20.952Z,83.60
2018-10-18T08:11:06.593Z,26.63
2018-10-18T08:14:15.879Z,24.30
2018-10-18T08:35:49.211Z,24.23
2018-10-18T16:45:23.598Z,6.87
2018-10-18T16:51:07.973Z,5.33
2018-10-18T17:35:41.436Z,5.17
2018-10-18T17:44:22.867Z,5.83
2018-10-18T19:26:35.537Z,4.33
2018-10-18T19:34:54.175Z,6.73
2018-10-18T22:55:41.760Z,5.60
2018-10-18T22:58:23.819Z,5.30
2018-10-18T23:03:29.953Z,7.93
2018-10-18T23:11:36.377Z,5.17
2018-10-18T23:14:44.054Z,7.23
2018-10-18T23:20:11.373Z,4.80
2018-10-18T23:22:43.802Z,6.37
2018-10-18T23:25:42.853Z,5.63
2018-10-18T23:39:32.761Z,7.43
2018-10-18T23:42:14.935Z,6.57
2018-10-18T23:44:54.866Z,5.60
2018-10-18T23:47:34.096Z,5.30
2018-10-18T23:53:01.788Z,3.13
